aviador You're here:

ZYTL Decoded Metar

DALIAN in CHINA
Report Time2017-09-24 01:00:00
UTC Time2017-09-24 01:24:29
Flight Rules mvfr MVFR
Wind200° at 8 kt
W.Decomp.*RWY 28: 2.5 kt HW 7.6 kt LCW
W.Rank200° ranks 29
Current wind is above 200° avg. (7.4)
Visibility6000 m
Phenomena:N/A
Clouds:Scattered 033 Hf
Expected CloudBase > 2,000 ft AGL from Temp-Dew spread
CeilingNone
Temp25°C (ISA +11)
Dew Point20°C (74% RH)
QNH1012 hPa
Density Alt1,893 ft
Elevation318 ft
Report Wrong Elevation
Raw Report
ZYTL 240100Z 20004MPS 170V240 6000 SCT033 25/20 Q1012 NOSIG=

Extra information for ZYTL:More info

Metar Taf Metar & Taf Last 4 Metars F.Rules Stats Wind Profile Meteogram Temp Stats Airport Information Weather charts Add Link Nearby VenuesMetar ALERT Operation Metar Decoded Social comments